Weather History for Princeton, MN

Change the Weather History Date:

Wednesday, March 13, 2013

  Actual Average Record
Temperature  
Mean Temperature 18 °F -  
Max Temperature 30 °F 33 °F 62 °F (2012)
Min Temperature 5 °F 16 °F -4 °F (2009)
Degree Days  
Heating Degree Days 48    
Moisture  
Dew Point 10 °F    
Average Humidity 71    
Maximum Humidity 92    
Minimum Humidity 47    
Precipitation  
Precipitation 0.00 in - - ()
Sea Level Pressure  
Sea Level Pressure 30.28 in    
Wind  
Wind Speed 6 mph (WSW)    
Max Wind Speed 10 mph    
Max Gust Speed -    
Visibility 10 miles    
Events      
Averages and records for this station are not official NWS values.
T = Trace of Precipitation, MM = Missing Value Source: NWS Daily Summary

Daily Weather History Graph

Daily Weather History Graph

Search for Another Location

Airport:

Trip Planner

Search our weather history database for the weather conditions in past years. The results will help you decide how hot, cold, wet, or windy it might be!

Date:

Astronomy

Mar. 13, 2013 Rise Set
Actual Time 7:30 AM CDT 7:18 PM CDT
Civil Twilight 7:00 AM CDT 7:47 PM CDT
Nautical Twilight 6:26 AM CDT 8:22 PM CDT
Astronomical Twilight 5:51 AM CDT 8:57 PM CDT
Moon 8:02 AM CDT (3/13) 9:44 PM CDT (3/13)
Length of Visible Light 12h 46m
Length of Day
11h 47m
Waxing Crescent, 4% of the Moon is Illuminated
Mar 13
Waxing Crescent
Mar 19
First Quarter
Mar 27
Full
Apr 2
Last Quarter
Apr 10
New

Hourly Weather History & Observations

Time (CDT) Temp. Windchill Dew Point Humidity Pressure Visibility Wind Dir Wind Speed Gust Speed Precip Events Conditions
12:11 AM 15.8 °F 4.2 °F 8.6 °F 73% 30.18 in 10.0 mi WNW 9.2 mph - N/A   Clear
12:51 AM 15.8 °F 5.1 °F 8.6 °F 73% 30.19 in 10.0 mi WNW 8.1 mph - N/A   Clear
1:11 AM 15.8 °F 3.4 °F 8.6 °F 73% 30.19 in 10.0 mi WNW 10.4 mph - N/A   Clear
1:31 AM 14.0 °F 1.2 °F 8.6 °F 79% 30.20 in 10.0 mi WNW 10.4 mph - N/A   Clear
1:51 AM 14.0 °F 2.0 °F 8.6 °F 79% 30.21 in 10.0 mi WNW 9.2 mph - N/A   Clear
2:12 AM 14.0 °F 2.9 °F 8.6 °F 79% 30.22 in 10.0 mi WNW 8.1 mph - N/A   Clear
2:31 AM 12.2 °F 0.7 °F 8.6 °F 85% 30.22 in 10.0 mi WNW 8.1 mph - N/A   Clear
2:51 AM 12.2 °F -0.2 °F 8.6 °F 85% 30.22 in 10.0 mi WNW 9.2 mph - N/A   Clear
3:12 AM 12.2 °F -0.2 °F 8.6 °F 85% 30.23 in 10.0 mi WNW 9.2 mph - N/A   Clear
3:31 AM 12.2 °F 0.7 °F 8.6 °F 85% 30.23 in 10.0 mi West 8.1 mph - N/A   Clear
3:51 AM 10.4 °F -0.4 °F 8.6 °F 92% 30.24 in 10.0 mi WNW 6.9 mph - N/A   Clear
4:12 AM 10.4 °F 0.8 °F 6.8 °F 85% 30.24 in 10.0 mi WNW 5.8 mph - N/A   Clear
4:31 AM 10.4 °F -0.4 °F 6.8 °F 85% 30.24 in 10.0 mi WNW 6.9 mph - N/A   Clear
4:51 AM 8.6 °F -1.3 °F 6.8 °F 92% 30.25 in 10.0 mi WNW 5.8 mph - N/A   Clear
5:12 AM 8.6 °F -1.3 °F 6.8 °F 92% 30.25 in 10.0 mi West 5.8 mph - N/A   Clear
5:31 AM 8.6 °F -1.3 °F 6.8 °F 92% 30.26 in 10.0 mi West 5.8 mph - N/A   Clear
5:51 AM 8.6 °F 0.1 °F 6.8 °F 92% 30.27 in 10.0 mi West 4.6 mph - N/A   Clear
6:12 AM 8.6 °F -1.3 °F 6.8 °F 92% 30.28 in 10.0 mi West 5.8 mph - N/A   Clear
6:31 AM 8.6 °F 0.1 °F 5.0 °F 85% 30.28 in 10.0 mi West 4.6 mph - N/A   Clear
6:51 AM 6.8 °F -2.0 °F 3.2 °F 85% 30.29 in 10.0 mi West 4.6 mph - N/A   Clear
7:11 AM 6.8 °F -2.0 °F 3.2 °F 85% 30.29 in 10.0 mi WNW 4.6 mph - N/A   Clear
7:31 AM 5.0 °F -2.1 °F 1.4 °F 85% 30.29 in 10.0 mi West 3.5 mph - N/A   Clear
7:51 AM 6.8 °F -0.1 °F 3.2 °F 85% 30.30 in 10.0 mi West 3.5 mph - N/A   Clear
8:11 AM 8.6 °F - 5.0 °F 85% 30.30 in 10.0 mi Calm Calm - N/A   Clear
8:31 AM 8.6 °F 2.0 °F 5.0 °F 85% 30.31 in 10.0 mi West 3.5 mph - N/A   Clear
8:51 AM 8.6 °F 2.0 °F 5.0 °F 85% 30.32 in 10.0 mi West 3.5 mph - N/A   Clear
9:11 AM 10.4 °F 4.0 °F 6.8 °F 85% 30.33 in 10.0 mi West 3.5 mph - N/A   Clear
9:31 AM 10.4 °F -1.5 °F 6.8 °F 85% 30.34 in 10.0 mi WNW 8.1 mph - N/A   Clear
9:51 AM 12.2 °F 2.9 °F 6.8 °F 79% 30.34 in 10.0 mi WNW 5.8 mph - N/A   Clear
10:11 AM 14.0 °F 6.5 °F 8.6 °F 79% 30.34 in 10.0 mi WNW 4.6 mph - N/A   Clear
10:31 AM 15.8 °F 10.2 °F 8.6 °F 73% 30.35 in 10.0 mi West 3.5 mph - N/A   Clear
10:51 AM 17.6 °F 12.3 °F 8.6 °F 68% 30.35 in 10.0 mi WSW 3.5 mph - N/A   Clear
11:11 AM 17.6 °F 10.7 °F 8.6 °F 68% 30.35 in 10.0 mi WSW 4.6 mph - N/A   Clear
11:31 AM 19.4 °F 14.3 °F 8.6 °F 63% 30.34 in 10.0 mi West 3.5 mph - N/A   Clear
11:51 AM 19.4 °F 14.3 °F 10.4 °F 68% 30.35 in 10.0 mi West 3.5 mph - N/A   Clear
12:11 PM 21.2 °F 16.4 °F 10.4 °F 63% 30.35 in 10.0 mi WSW 3.5 mph - N/A   Clear
12:31 PM 23.0 °F 18.4 °F 10.4 °F 59% 30.35 in 10.0 mi WSW 3.5 mph - N/A   Clear
12:51 PM 24.8 °F 20.5 °F 8.6 °F 50% 30.35 in 10.0 mi WSW 3.5 mph - N/A   Clear
1:11 PM 24.8 °F - 12.2 °F 59% 30.34 in 10.0 mi Calm Calm - N/A   Clear
1:31 PM 26.6 °F 22.6 °F 12.2 °F 55% 30.34 in 10.0 mi WNW 3.5 mph - N/A   Clear
1:52 PM 26.6 °F 19.1 °F 14.0 °F 59% 30.33 in 10.0 mi West 6.9 mph - N/A   Clear
2:11 PM 28.4 °F 21.2 °F 14.0 °F 55% 30.33 in 10.0 mi West 6.9 mph - N/A   Clear
2:31 PM 28.4 °F 21.2 °F 14.0 °F 55% 30.33 in 10.0 mi West 6.9 mph - N/A   Clear
2:52 PM 28.4 °F 22.2 °F 15.8 °F 59% 30.32 in 10.0 mi West 5.8 mph - N/A   Clear
3:11 PM 28.4 °F 22.2 °F 15.8 °F 59% 30.32 in 10.0 mi WNW 5.8 mph - N/A   Clear
3:31 PM 28.4 °F 23.3 °F 15.8 °F 59% 30.31 in 10.0 mi WNW 4.6 mph - N/A   Clear
3:51 PM 28.4 °F 23.3 °F 15.8 °F 59% 30.31 in 10.0 mi NW 4.6 mph - N/A   Clear
4:11 PM 30.2 °F 22.6 °F 12.2 °F 47% 30.30 in 10.0 mi WSW 8.1 mph - N/A   Clear
4:32 PM 30.2 °F 24.3 °F 12.2 °F 47% 30.30 in 10.0 mi WSW 5.8 mph - N/A   Clear
4:51 PM 30.2 °F 25.4 °F 12.2 °F 47% 30.29 in 10.0 mi WSW 4.6 mph - N/A   Clear
5:11 PM 30.2 °F 25.4 °F 12.2 °F 47% 30.29 in 10.0 mi SSW 4.6 mph - N/A   Clear
5:32 PM 28.4 °F 23.3 °F 10.4 °F 47% 30.28 in 10.0 mi SW 4.6 mph - N/A   Clear
5:51 PM 28.4 °F 24.6 °F 12.2 °F 51% 30.27 in 10.0 mi SSW 3.5 mph - N/A   Clear
6:11 PM 28.4 °F 21.2 °F 12.2 °F 51% 30.28 in 10.0 mi SSW 6.9 mph - N/A   Clear
6:31 PM 28.4 °F 24.6 °F 12.2 °F 51% 30.28 in 10.0 mi SW 3.5 mph - N/A   Clear
6:51 PM 26.6 °F 22.6 °F 12.2 °F 55% 30.28 in 10.0 mi SW 3.5 mph - N/A   Clear
7:12 PM 26.6 °F 22.6 °F 12.2 °F 55% 30.28 in 10.0 mi SW 3.5 mph - N/A   Clear
7:31 PM 24.8 °F 17.9 °F 12.2 °F 59% 30.27 in 10.0 mi SSW 5.8 mph - N/A   Clear
7:51 PM 24.8 °F 19.1 °F 12.2 °F 59% 30.27 in 10.0 mi South 4.6 mph - N/A   Clear
8:12 PM 24.8 °F 20.5 °F 12.2 °F 59% 30.26 in 10.0 mi South 3.5 mph - N/A   Clear
8:31 PM 24.8 °F 19.1 °F 12.2 °F 59% 30.26 in 10.0 mi South 4.6 mph - N/A   Clear
8:51 PM 24.8 °F 19.1 °F 14.0 °F 64% 30.26 in 10.0 mi South 4.6 mph - N/A   Clear
9:12 PM 23.0 °F 17.0 °F 12.2 °F 63% 30.25 in 10.0 mi South 4.6 mph - N/A   Clear
9:31 PM 23.0 °F 15.8 °F 14.0 °F 68% 30.25 in 10.0 mi South 5.8 mph - N/A   Clear
9:51 PM 21.2 °F 13.6 °F 15.8 °F 80% 30.24 in 10.0 mi South 5.8 mph - N/A   Clear
10:11 PM 21.2 °F 13.6 °F 15.8 °F 80% 30.24 in 10.0 mi South 5.8 mph - N/A   Clear
10:31 PM 21.2 °F 14.9 °F 14.0 °F 74% 30.23 in 10.0 mi South 4.6 mph - N/A   Clear
10:52 PM 21.2 °F 16.4 °F 15.8 °F 80% 30.23 in 10.0 mi South 3.5 mph - N/A   Clear
11:11 PM 21.2 °F 14.9 °F 15.8 °F 80% 30.23 in 10.0 mi SSE 4.6 mph - N/A   Mostly Cloudy
11:31 PM 21.2 °F 14.9 °F 15.8 °F 80% 30.22 in 10.0 mi SSE 4.6 mph - N/A   Overcast
11:52 PM 21.2 °F - 15.8 °F 80% 30.21 in 10.0 mi Calm Calm - N/A   Overcast